Terminal Aerodrome Forecast
Issued by NWS

Home | Current Version | Previous Version | Text Only | Print | Product List | Glossary On
Versions: 1 2 3 4 5 6 7 8 9 10 11 12
000
FTUS46 KHNX 031725
TAFMER
TAF
KMER 031725Z 0318/0418 32009KT P6SM SKC
     FM032200 31012G18KT P6SM BKN250
     FM040600 29006KT P6SM BKN250=

USA.gov is the U.S. government's official web portal to all federal, state and local government web resources and services.